Terminal Aerodrome Forecast
Issued by NWS Riverton, WY

Home | Current Version | Previous Version | Text Only | Print | Product List | Glossary On
Versions: 1 2 3 4 5 6 7 8 9 10 11 12 13 14
529
FTUS45 KRIW 212333
TAFRIW
TAF
KRIW 212333Z 2200/2224 25015G25KT P6SM BKN100
     FM220300 28014G24KT P6SM VCSH BKN070
      TEMPO 2203/2205 -SHRA BKN050
     FM220800 32011KT P6SM BKN090
     FM221800 02012G18KT P6SM FEW090 SCT150=

USA.gov is the U.S. government's official web portal to all federal, state and local government web resources and services.